Hlavní strana
METAR-TAF:

METAR-TAF

Letiště :

Franklin Municipal-John Beverly Rose Airport

Franklin, Virginie, Spojené státy americké

zeměpisná šířka: 36-42N, zeměpisná délka: 076-54W, výška: 12 m

Aktuální stav počasí

Zpráva byla vytvořena před 30 minutami, v 11:15 UTC
Bezvětří
Teplota 2°C
Vlhkost vzduchu 100%
Tlak 1024 hPa
Viditelnost: 8.0 km
Oblačno až skoro zataženo ve výšce 4600 ft
Oblačno až skoro zataženo ve výšce 5000 ft
kouřmo

METAR: KFKN 241115Z AUTO 00000KT 5SM BR BKN046 BKN050 02/02 A3024 RMK AO2 T00240021

Čas: 06:45 (11:45 UTC)


TAF: chybějící

Stav a předpovědi počasí z více než 4 000 letišť (zprávy METAR a TAF).

Červené a žluté tečky na mapě představují dostupné meteorologické stanice.

Když kurzor umístíte na tečku, zobrazí se název stanice.

Pak kliknutím zobrazíte stav a předpověď počasí.

Chcete-li změnit mapu, kliknutím na zelené tlačítko se znaménkem +mapu přiblížíte, kliknutím na zelené tlačítko se znaménkem – mapu oddálíte a kliknutím na zelené šipky přejdete na sousední mapy.


METAR-TAF: